createdAt,value
2016-12-24T00:00:45.302Z,0
2016-12-24T00:01:55.995Z,0
2016-12-24T00:03:06.737Z,0
2016-12-24T00:04:17.466Z,0
2016-12-24T00:05:28.184Z,0
2016-12-24T00:06:38.904Z,0
2016-12-24T00:07:49.624Z,0
2016-12-24T00:09:00.346Z,0
2016-12-24T00:10:11.038Z,0
2016-12-24T00:11:21.762Z,0
2016-12-24T00:12:32.476Z,0
2016-12-24T00:13:43.208Z,0
2016-12-24T00:14:53.928Z,0
2016-12-24T00:16:04.661Z,0
2016-12-24T00:17:15.374Z,0
2016-12-24T00:18:26.110Z,0
2016-12-24T00:19:36.831Z,0
2016-12-24T00:20:47.528Z,0
2016-12-24T00:21:58.223Z,0
2016-12-24T00:23:08.946Z,0
2016-12-24T00:24:19.661Z,0
2016-12-24T00:25:30.411Z,0
2016-12-24T00:26:41.157Z,0
2016-12-24T00:27:51.872Z,0
2016-12-24T00:29:02.604Z,0
2016-12-24T00:30:13.339Z,0
2016-12-24T00:31:24.042Z,0
2016-12-24T00:32:34.784Z,0
2016-12-24T00:33:45.487Z,0
2016-12-24T00:34:56.197Z,0
2016-12-24T00:36:06.932Z,0
2016-12-24T00:37:17.676Z,0
2016-12-24T00:38:28.422Z,0
2016-12-24T00:39:39.152Z,0
2016-12-24T00:40:49.888Z,0
2016-12-24T00:42:00.606Z,0
2016-12-24T00:43:11.312Z,0
2016-12-24T00:44:22.023Z,0
2016-12-24T00:45:32.754Z,0
2016-12-24T00:46:43.465Z,0
2016-12-24T00:47:54.163Z,0
2016-12-24T00:49:04.889Z,0
2016-12-24T00:50:15.603Z,0
2016-12-24T00:51:26.345Z,0
2016-12-24T00:52:37.053Z,0
2016-12-24T00:53:47.766Z,0
2016-12-24T00:54:58.508Z,0
2016-12-24T00:56:09.233Z,0
2016-12-24T00:57:19.971Z,0
2016-12-24T00:58:30.703Z,0
2016-12-24T00:59:41.442Z,0
2016-12-24T01:00:52.147Z,0
2016-12-24T01:02:02.844Z,0
2016-12-24T01:03:13.535Z,0
2016-12-24T01:04:24.276Z,0
2016-12-24T01:05:35.018Z,0
2016-12-24T01:06:45.750Z,0
2016-12-24T01:07:56.474Z,0
2016-12-24T01:09:07.168Z,0
2016-12-24T01:10:17.876Z,0
2016-12-24T01:11:28.586Z,0
2016-12-24T01:12:39.278Z,0
2016-12-24T01:13:49.979Z,0
2016-12-24T01:15:00.719Z,0
2016-12-24T01:16:11.440Z,0
2016-12-24T01:17:22.156Z,0
2016-12-24T01:18:32.883Z,0
2016-12-24T01:19:43.906Z,0
2016-12-24T01:20:54.645Z,0
2016-12-24T01:22:05.347Z,0
2016-12-24T01:23:16.383Z,0
2016-12-24T01:24:27.161Z,0
2016-12-24T01:25:37.900Z,0
2016-12-24T01:26:48.625Z,0
2016-12-24T01:27:59.325Z,0
2016-12-24T01:29:10.066Z,0
2016-12-24T01:30:20.820Z,0
2016-12-24T01:31:31.544Z,0
2016-12-24T01:32:42.290Z,0
2016-12-24T01:33:53.333Z,0
2016-12-24T01:35:04.071Z,0
2016-12-24T01:36:14.782Z,0
2016-12-24T01:37:25.499Z,0
2016-12-24T01:38:36.217Z,0
2016-12-24T01:39:46.928Z,0
2016-12-24T01:40:57.681Z,0
2016-12-24T01:42:08.693Z,0
2016-12-24T01:43:19.419Z,0
2016-12-24T01:44:30.147Z,0
2016-12-24T01:45:40.867Z,0
2016-12-24T01:46:51.590Z,0
2016-12-24T01:48:02.328Z,0
2016-12-24T01:49:13.078Z,0
2016-12-24T01:50:23.799Z,0
2016-12-24T01:51:34.515Z,0
2016-12-24T01:52:45.233Z,0
2016-12-24T01:53:55.962Z,0
2016-12-24T01:55:06.687Z,0
2016-12-24T01:56:17.409Z,0
2016-12-24T01:57:28.103Z,0
2016-12-24T01:58:38.845Z,0
2016-12-24T01:59:49.583Z,0
2016-12-24T02:01:00.315Z,0
2016-12-24T02:02:11.038Z,0
2016-12-24T02:03:21.758Z,0
2016-12-24T02:04:32.495Z,0
2016-12-24T02:05:43.226Z,0
2016-12-24T02:06:53.942Z,0
2016-12-24T02:08:04.981Z,0
2016-12-24T02:09:15.685Z,0
2016-12-24T02:10:26.396Z,0
2016-12-24T02:11:37.145Z,0
2016-12-24T02:12:47.873Z,0
2016-12-24T02:13:58.583Z,0
2016-12-24T02:15:09.312Z,0
2016-12-24T02:16:20.036Z,0
2016-12-24T02:17:30.755Z,0
2016-12-24T02:18:41.467Z,0
2016-12-24T02:19:52.192Z,0
2016-12-24T02:21:02.902Z,0
2016-12-24T02:22:13.918Z,0
2016-12-24T02:23:24.630Z,0
2016-12-24T02:24:35.359Z,0
2016-12-24T02:25:46.056Z,0
2016-12-24T02:26:56.748Z,0
2016-12-24T02:28:07.473Z,0
2016-12-24T02:29:18.190Z,0
2016-12-24T02:30:28.907Z,0
2016-12-24T02:31:39.631Z,0
2016-12-24T02:32:50.373Z,0
2016-12-24T02:34:01.076Z,0
2016-12-24T02:35:11.794Z,0
2016-12-24T02:36:22.507Z,0
2016-12-24T02:37:33.256Z,0
2016-12-24T02:38:44.015Z,0
2016-12-24T02:39:54.770Z,0
2016-12-24T02:41:05.482Z,0
2016-12-24T02:42:16.197Z,0
2016-12-24T02:43:26.933Z,0
2016-12-24T02:44:37.687Z,0
2016-12-24T02:45:48.408Z,0
2016-12-24T02:46:59.170Z,0
2016-12-24T02:48:09.920Z,0
2016-12-24T02:49:20.646Z,0
2016-12-24T02:50:31.369Z,0
2016-12-24T02:51:42.104Z,0
2016-12-24T02:52:52.854Z,0
2016-12-24T02:54:03.555Z,0
2016-12-24T02:55:14.293Z,0
2016-12-24T02:56:25.039Z,0
2016-12-24T02:57:35.764Z,0
2016-12-24T02:58:46.468Z,0
2016-12-24T02:59:57.188Z,0
2016-12-24T03:01:07.889Z,0
2016-12-24T03:02:18.626Z,0
2016-12-24T03:03:29.329Z,0
2016-12-24T03:04:40.036Z,0
2016-12-24T03:05:50.756Z,0
2016-12-24T03:07:01.486Z,0
2016-12-24T03:08:12.236Z,0
2016-12-24T03:09:22.970Z,0
2016-12-24T03:10:33.684Z,0
2016-12-24T03:11:44.423Z,0
2016-12-24T03:12:55.183Z,0
2016-12-24T03:14:05.912Z,0
2016-12-24T03:15:16.616Z,0
2016-12-24T03:16:27.354Z,0
2016-12-24T03:17:38.054Z,0
2016-12-24T03:18:48.770Z,0
2016-12-24T03:19:59.472Z,0
2016-12-24T03:21:10.205Z,0
2016-12-24T03:22:20.929Z,0
2016-12-24T03:23:31.671Z,0
2016-12-24T03:24:42.379Z,0
2016-12-24T03:25:53.103Z,0
2016-12-24T03:27:03.814Z,0
2016-12-24T03:28:14.556Z,0
2016-12-24T03:29:25.260Z,0
2016-12-24T03:30:35.985Z,0
2016-12-24T03:31:46.719Z,0
2016-12-24T03:32:57.426Z,0
2016-12-24T03:34:08.119Z,0
2016-12-24T03:35:18.840Z,0
2016-12-24T03:36:29.578Z,0
2016-12-24T03:37:40.313Z,0
2016-12-24T03:38:51.034Z,0
2016-12-24T03:40:01.753Z,0
2016-12-24T03:41:12.488Z,0
2016-12-24T03:42:23.196Z,0
2016-12-24T03:43:33.920Z,0
2016-12-24T03:44:44.655Z,0
2016-12-24T03:45:55.357Z,0
2016-12-24T03:47:06.069Z,0
2016-12-24T03:48:16.800Z,0
2016-12-24T03:49:27.522Z,0
2016-12-24T03:50:38.242Z,0
2016-12-24T03:51:48.976Z,0
2016-12-24T03:52:59.702Z,0
2016-12-24T03:54:10.747Z,0
2016-12-24T03:55:21.477Z,0
2016-12-24T03:56:32.189Z,0
2016-12-24T03:57:42.919Z,0
2016-12-24T03:58:53.660Z,0
2016-12-24T04:00:04.681Z,0
2016-12-24T04:01:15.419Z,0
2016-12-24T04:02:26.155Z,0
2016-12-24T04:03:36.886Z,0
2016-12-24T04:04:47.612Z,0
2016-12-24T04:05:58.354Z,0
2016-12-24T04:07:09.103Z,0
2016-12-24T04:08:19.828Z,0
2016-12-24T04:09:30.578Z,0
2016-12-24T04:10:41.313Z,0
2016-12-24T04:11:52.037Z,0
2016-12-24T04:13:02.768Z,0
2016-12-24T04:14:13.483Z,0
2016-12-24T04:15:24.207Z,0
2016-12-24T04:16:34.943Z,0
2016-12-24T04:17:45.671Z,0
2016-12-24T04:18:56.371Z,0
2016-12-24T04:20:07.088Z,0
2016-12-24T04:21:17.831Z,0
2016-12-24T04:22:28.560Z,0
2016-12-24T04:23:39.320Z,0
2016-12-24T04:24:50.065Z,0
2016-12-24T04:26:01.125Z,0
2016-12-24T04:27:11.850Z,0
2016-12-24T04:28:22.578Z,0
2016-12-24T04:29:33.288Z,0
2016-12-24T04:30:44.003Z,0
2016-12-24T04:31:54.753Z,0
2016-12-24T04:33:05.490Z,0
2016-12-24T04:34:16.216Z,0
2016-12-24T04:35:26.939Z,0
2016-12-24T04:36:37.662Z,0
2016-12-24T04:37:48.403Z,0
2016-12-24T04:38:59.153Z,0
2016-12-24T04:40:09.888Z,0
2016-12-24T04:41:20.594Z,0
2016-12-24T04:42:31.313Z,0
2016-12-24T04:43:42.029Z,0
2016-12-24T04:44:52.748Z,0
2016-12-24T04:46:03.476Z,0
2016-12-24T04:47:14.197Z,0
2016-12-24T04:48:24.939Z,0
2016-12-24T04:49:35.667Z,0
2016-12-24T04:50:46.386Z,0
2016-12-24T04:51:57.087Z,0
2016-12-24T04:53:07.802Z,0
2016-12-24T04:54:18.508Z,0
2016-12-24T04:55:29.219Z,0
2016-12-24T04:56:39.959Z,0
2016-12-24T04:57:50.686Z,0
2016-12-24T04:59:01.411Z,0
2016-12-24T05:00:12.163Z,0
2016-12-24T05:01:22.895Z,0
2016-12-24T05:02:33.638Z,0
2016-12-24T05:03:44.341Z,0
2016-12-24T05:04:55.058Z,0
2016-12-24T05:06:05.805Z,0
2016-12-24T05:07:16.535Z,0
2016-12-24T05:08:27.281Z,0
2016-12-24T05:09:37.999Z,0
2016-12-24T05:10:48.710Z,0
2016-12-24T05:11:59.415Z,0
2016-12-24T05:13:10.142Z,0
2016-12-24T05:14:20.885Z,0
2016-12-24T05:15:31.623Z,0
2016-12-24T05:16:42.353Z,0
2016-12-24T05:17:53.069Z,0
2016-12-24T05:19:03.768Z,0
2016-12-24T05:20:14.815Z,0
2016-12-24T05:21:25.540Z,0
2016-12-24T05:22:36.274Z,0
2016-12-24T05:23:47.292Z,0
2016-12-24T05:24:58.001Z,0
2016-12-24T05:26:08.737Z,0
2016-12-24T05:27:19.465Z,0
2016-12-24T05:28:30.185Z,0
2016-12-24T05:29:40.885Z,0
2016-12-24T05:30:51.628Z,0
2016-12-24T05:32:02.367Z,0
2016-12-24T05:33:13.067Z,0
2016-12-24T05:34:23.793Z,0
2016-12-24T05:35:34.530Z,0
2016-12-24T05:36:45.279Z,0
2016-12-24T05:37:56.293Z,0
2016-12-24T05:39:07.026Z,0
2016-12-24T05:40:17.746Z,0
2016-12-24T05:41:28.485Z,0
2016-12-24T05:42:39.185Z,0
2016-12-24T05:43:49.900Z,0
2016-12-24T05:45:00.623Z,0
2016-12-24T05:46:11.352Z,0
2016-12-24T05:47:22.090Z,0
2016-12-24T05:48:32.810Z,0
2016-12-24T05:49:43.557Z,0
2016-12-24T05:50:54.282Z,0
2016-12-24T05:52:05.039Z,0
2016-12-24T05:53:15.781Z,0
2016-12-24T05:54:26.501Z,0
2016-12-24T05:55:37.213Z,0
2016-12-24T05:56:47.937Z,0
2016-12-24T05:57:58.686Z,0
2016-12-24T05:59:09.397Z,0
2016-12-24T06:00:20.129Z,0
2016-12-24T06:01:30.871Z,0
2016-12-24T06:02:41.602Z,0
2016-12-24T06:03:52.631Z,0
2016-12-24T06:05:03.358Z,0
2016-12-24T06:06:14.062Z,0
2016-12-24T06:07:24.769Z,0
2016-12-24T06:08:35.519Z,0
2016-12-24T06:09:46.228Z,0
2016-12-24T06:10:56.985Z,0
2016-12-24T06:12:07.717Z,0
2016-12-24T06:13:18.436Z,0
2016-12-24T06:14:29.171Z,0
2016-12-24T06:15:39.908Z,0
2016-12-24T06:16:50.638Z,0
2016-12-24T06:18:01.366Z,0
2016-12-24T06:19:12.090Z,0
2016-12-24T06:20:22.813Z,0
2016-12-24T06:21:33.808Z,0
2016-12-24T06:22:44.553Z,0
2016-12-24T06:23:55.250Z,0
2016-12-24T06:25:05.970Z,0
2016-12-24T06:26:16.694Z,0
2016-12-24T06:27:27.409Z,0
2016-12-24T06:28:38.138Z,0
2016-12-24T06:29:48.859Z,0
2016-12-24T06:30:59.571Z,0
2016-12-24T06:32:10.289Z,0
2016-12-24T06:33:21.010Z,0
2016-12-24T06:34:31.740Z,0
2016-12-24T06:35:42.473Z,0
2016-12-24T06:36:53.202Z,0
2016-12-24T06:38:04.201Z,0
2016-12-24T06:39:14.944Z,0
2016-12-24T06:40:25.670Z,0
2016-12-24T06:41:36.382Z,0
2016-12-24T06:42:47.082Z,0
2016-12-24T06:43:57.821Z,0
2016-12-24T06:45:08.545Z,0
2016-12-24T06:46:19.266Z,0
2016-12-24T06:47:29.984Z,0
2016-12-24T06:48:40.706Z,0
2016-12-24T06:49:51.450Z,0
2016-12-24T06:51:02.196Z,0
2016-12-24T06:52:12.904Z,0
2016-12-24T06:53:23.639Z,0
2016-12-24T06:54:34.388Z,0
2016-12-24T06:55:45.130Z,0
2016-12-24T06:56:55.880Z,0
2016-12-24T06:58:06.613Z,0
2016-12-24T06:59:17.347Z,0
2016-12-24T07:00:28.117Z,0
2016-12-24T07:01:38.823Z,0
2016-12-24T07:02:49.539Z,0
2016-12-24T07:04:00.278Z,0
2016-12-24T07:05:10.981Z,0
2016-12-24T07:06:21.723Z,0
2016-12-24T07:07:32.450Z,0
2016-12-24T07:08:43.173Z,0
2016-12-24T07:09:53.915Z,5
2016-12-24T07:11:04.628Z,5
2016-12-24T07:12:15.363Z,5
2016-12-24T07:13:26.078Z,5
2016-12-24T07:14:36.804Z,5
2016-12-24T07:15:47.541Z,5
2016-12-24T07:16:58.266Z,5
2016-12-24T07:18:08.992Z,5
2016-12-24T07:19:19.726Z,5
2016-12-24T07:20:30.471Z,5
2016-12-24T07:21:41.206Z,5
2016-12-24T07:22:51.927Z,5
2016-12-24T07:24:02.667Z,5
2016-12-24T07:25:13.408Z,5
2016-12-24T07:26:24.138Z,5
2016-12-24T07:27:34.883Z,5
2016-12-24T07:28:45.606Z,5
2016-12-24T07:29:56.317Z,10
2016-12-24T07:31:07.064Z,15
2016-12-24T07:32:17.795Z,10
2016-12-24T07:33:28.552Z,10
2016-12-24T07:34:39.264Z,15
2016-12-24T07:35:50.007Z,15
2016-12-24T07:37:00.743Z,10
2016-12-24T07:38:11.464Z,10
2016-12-24T07:39:22.192Z,10
2016-12-24T07:40:32.938Z,10
2016-12-24T07:41:43.657Z,15
2016-12-24T07:42:54.358Z,15
2016-12-24T07:44:05.049Z,15
2016-12-24T07:45:15.775Z,15
2016-12-24T07:46:26.820Z,15
2016-12-24T07:47:37.516Z,15
2016-12-24T07:48:48.210Z,15
2016-12-24T07:49:58.929Z,15
2016-12-24T07:51:09.631Z,15
2016-12-24T07:52:20.667Z,10
2016-12-24T07:53:31.398Z,15
2016-12-24T07:54:42.130Z,15
2016-12-24T07:55:52.879Z,20
2016-12-24T07:57:03.608Z,20
2016-12-24T07:58:14.346Z,20
2016-12-24T07:59:25.071Z,20
2016-12-24T08:00:35.810Z,20
2016-12-24T08:01:46.539Z,30
2016-12-24T08:02:57.280Z,30
2016-12-24T08:04:08.030Z,30
2016-12-24T08:05:18.755Z,30
2016-12-24T08:06:29.481Z,30
2016-12-24T08:07:40.200Z,30
2016-12-24T08:08:50.971Z,35
2016-12-24T08:10:01.703Z,45
2016-12-24T08:11:12.431Z,50
2016-12-24T08:12:23.173Z,55
2016-12-24T08:13:33.904Z,55
2016-12-24T08:14:44.619Z,50
2016-12-24T08:15:55.320Z,60
2016-12-24T08:17:06.057Z,50
2016-12-24T08:18:16.782Z,55
2016-12-24T08:19:27.506Z,65
2016-12-24T08:20:38.226Z,75
2016-12-24T08:21:48.973Z,65
2016-12-24T08:22:59.716Z,75
2016-12-24T08:24:10.432Z,75
2016-12-24T08:25:21.158Z,65
2016-12-24T08:26:31.885Z,55
2016-12-24T08:27:42.617Z,55
2016-12-24T08:28:53.347Z,60
2016-12-24T08:30:04.051Z,70
2016-12-24T08:31:14.784Z,65
2016-12-24T08:32:25.513Z,55
2016-12-24T08:33:36.236Z,65
2016-12-24T08:34:46.969Z,70
2016-12-24T08:35:57.697Z,70
2016-12-24T08:37:08.439Z,70
2016-12-24T08:38:19.185Z,70
2016-12-24T08:39:29.902Z,80
2016-12-24T08:40:40.627Z,65
2016-12-24T08:41:51.333Z,90
2016-12-24T08:43:02.094Z,110
2016-12-24T08:44:12.819Z,125
2016-12-24T08:45:23.549Z,120
2016-12-24T08:46:34.582Z,100
2016-12-24T08:47:45.286Z,80
2016-12-24T08:48:56.035Z,55
2016-12-24T08:50:06.770Z,60
2016-12-24T08:51:17.515Z,85
2016-12-24T08:52:28.220Z,90
2016-12-24T08:53:38.929Z,85
2016-12-24T08:54:49.679Z,50
2016-12-24T08:56:00.421Z,45
2016-12-24T08:57:11.170Z,85
2016-12-24T08:58:21.878Z,110
2016-12-24T08:59:32.595Z,70
2016-12-24T09:00:43.334Z,75
2016-12-24T09:01:54.040Z,110
2016-12-24T09:03:04.772Z,95
2016-12-24T09:04:15.503Z,100
2016-12-24T09:05:26.218Z,165
2016-12-24T09:06:36.943Z,180
2016-12-24T09:07:47.665Z,195
2016-12-24T09:08:58.385Z,210
2016-12-24T09:10:09.081Z,215
2016-12-24T09:11:19.804Z,220
2016-12-24T09:12:30.529Z,225
2016-12-24T09:13:41.224Z,160
2016-12-24T09:14:51.957Z,140
2016-12-24T09:16:02.694Z,200
2016-12-24T09:17:13.411Z,230
2016-12-24T09:18:24.148Z,235
2016-12-24T09:19:34.877Z,245
2016-12-24T09:20:45.616Z,270
2016-12-24T09:21:56.361Z,270
2016-12-24T09:23:07.090Z,265
2016-12-24T09:24:17.825Z,255
2016-12-24T09:25:28.546Z,245
2016-12-24T09:26:39.303Z,235
2016-12-24T09:27:50.022Z,230
2016-12-24T09:29:00.772Z,230
2016-12-24T09:30:11.488Z,210
2016-12-24T09:31:22.238Z,195
2016-12-24T09:32:32.983Z,145
2016-12-24T09:33:43.718Z,150
2016-12-24T09:34:54.427Z,125
2016-12-24T09:36:05.188Z,145
2016-12-24T09:37:15.919Z,145
2016-12-24T09:38:26.665Z,115
2016-12-24T09:39:37.373Z,110
2016-12-24T09:40:48.106Z,150
2016-12-24T09:41:58.880Z,130
2016-12-24T09:43:09.618Z,125
2016-12-24T09:44:20.345Z,135
2016-12-24T09:45:31.066Z,155
2016-12-24T09:46:41.806Z,160
2016-12-24T09:47:52.524Z,165
2016-12-24T09:49:03.570Z,165
2016-12-24T09:50:14.299Z,165
2016-12-24T09:51:25.040Z,170
2016-12-24T09:52:35.769Z,175
2016-12-24T09:53:46.488Z,170
2016-12-24T09:54:57.228Z,175
2016-12-24T09:56:07.941Z,180
2016-12-24T09:57:18.680Z,180
2016-12-24T09:58:29.720Z,155
2016-12-24T09:59:40.468Z,155
2016-12-24T10:00:51.163Z,160
2016-12-24T10:02:02.210Z,170
2016-12-24T10:03:12.944Z,155
2016-12-24T10:04:23.693Z,160
2016-12-24T10:05:34.438Z,160
2016-12-24T10:06:45.169Z,175
2016-12-24T10:07:55.917Z,185
2016-12-24T10:09:06.656Z,195
2016-12-24T10:10:17.377Z,205
2016-12-24T10:11:28.101Z,210
2016-12-24T10:12:38.818Z,210
2016-12-24T10:13:49.560Z,205
2016-12-24T10:15:00.314Z,200
2016-12-24T10:16:11.027Z,200
2016-12-24T10:17:21.756Z,200
2016-12-24T10:18:32.473Z,200
2016-12-24T10:19:43.487Z,205
2016-12-24T10:20:54.219Z,205
2016-12-24T10:22:04.962Z,195
2016-12-24T10:23:15.682Z,185
2016-12-24T10:24:26.450Z,190
2016-12-24T10:25:37.175Z,200
2016-12-24T10:26:48.196Z,215
2016-12-24T10:27:58.966Z,200
2016-12-24T10:29:09.709Z,195
2016-12-24T10:30:20.479Z,205
2016-12-24T10:31:31.204Z,210
2016-12-24T10:32:41.950Z,230
2016-12-24T10:33:52.677Z,240
2016-12-24T10:35:03.392Z,240
2016-12-24T10:36:14.098Z,240
2016-12-24T10:37:24.831Z,215
2016-12-24T10:38:35.548Z,180
2016-12-24T10:39:46.294Z,205
2016-12-24T10:40:57.039Z,230
2016-12-24T10:42:07.748Z,240
2016-12-24T10:43:18.489Z,240
2016-12-24T10:44:29.215Z,245
2016-12-24T10:45:39.906Z,245
2016-12-24T10:46:50.620Z,245
2016-12-24T10:48:01.369Z,255
2016-12-24T10:49:12.103Z,270
2016-12-24T10:50:22.845Z,260
2016-12-24T10:51:33.566Z,245
2016-12-24T10:52:44.332Z,270
2016-12-24T10:53:55.073Z,285
2016-12-24T10:55:05.816Z,285
2016-12-24T10:56:16.573Z,270
2016-12-24T10:57:27.291Z,215
2016-12-24T10:58:38.012Z,185
2016-12-24T10:59:48.754Z,205
2016-12-24T11:00:59.479Z,180
2016-12-24T11:02:10.221Z,240
2016-12-24T11:03:20.950Z,275
2016-12-24T11:04:31.647Z,295
2016-12-24T11:05:42.363Z,245
2016-12-24T11:06:53.063Z,190
2016-12-24T11:08:03.775Z,140
2016-12-24T11:09:14.557Z,150
2016-12-24T11:10:25.304Z,170
2016-12-24T11:11:36.038Z,170
2016-12-24T11:12:47.069Z,160
2016-12-24T11:13:57.791Z,155
2016-12-24T11:15:08.530Z,110
2016-12-24T11:16:19.252Z,80
2016-12-24T11:17:29.972Z,90
2016-12-24T11:18:40.697Z,80
2016-12-24T11:19:51.410Z,60
2016-12-24T11:21:02.171Z,95
2016-12-24T11:22:12.886Z,110
2016-12-24T11:23:23.619Z,150
2016-12-24T11:24:34.350Z,175
2016-12-24T11:25:45.069Z,195
2016-12-24T11:26:55.765Z,190
2016-12-24T11:28:06.491Z,200
2016-12-24T11:29:17.214Z,190
2016-12-24T11:30:27.945Z,175
2016-12-24T11:31:38.670Z,150
2016-12-24T11:32:49.413Z,205
2016-12-24T11:34:00.122Z,155
2016-12-24T11:35:10.862Z,165
2016-12-24T11:36:21.584Z,215
2016-12-24T11:37:32.310Z,130
2016-12-24T11:38:43.027Z,215
2016-12-24T11:39:53.751Z,205
2016-12-24T11:41:04.473Z,140
2016-12-24T11:42:15.191Z,120
2016-12-24T11:43:25.913Z,160
2016-12-24T11:44:36.635Z,225
2016-12-24T11:45:47.354Z,250
2016-12-24T11:46:58.092Z,175
2016-12-24T11:48:08.820Z,190
2016-12-24T11:49:19.539Z,130
2016-12-24T11:50:30.261Z,120
2016-12-24T11:51:40.986Z,165
2016-12-24T11:52:51.705Z,195
2016-12-24T11:54:02.424Z,145
2016-12-24T11:55:13.159Z,100
2016-12-24T11:56:23.891Z,115
2016-12-24T11:57:34.638Z,160
2016-12-24T11:58:45.373Z,200
2016-12-24T11:59:56.131Z,195
2016-12-24T12:01:06.847Z,195
2016-12-24T12:02:17.597Z,175
2016-12-24T12:03:28.320Z,160
2016-12-24T12:04:39.042Z,160
2016-12-24T12:05:49.773Z,170
2016-12-24T12:07:00.520Z,115
2016-12-24T12:08:11.268Z,120
2016-12-24T12:09:22.014Z,125
2016-12-24T12:10:32.744Z,120
2016-12-24T12:11:43.462Z,150
2016-12-24T12:12:54.190Z,195
2016-12-24T12:14:04.905Z,245
2016-12-24T12:15:15.642Z,250
2016-12-24T12:16:26.370Z,230
2016-12-24T12:17:37.069Z,225
2016-12-24T12:18:47.805Z,260
2016-12-24T12:19:58.528Z,260
2016-12-24T12:21:09.574Z,270
2016-12-24T12:22:20.308Z,265
2016-12-24T12:23:31.074Z,260
2016-12-24T12:24:41.799Z,250
2016-12-24T12:25:52.816Z,240
2016-12-24T12:27:03.553Z,230
2016-12-24T12:28:14.275Z,230
2016-12-24T12:29:25.333Z,230
2016-12-24T12:30:36.099Z,240
2016-12-24T12:31:46.824Z,250
2016-12-24T12:32:57.538Z,260
2016-12-24T12:34:08.262Z,255
2016-12-24T12:35:18.986Z,245
2016-12-24T12:36:29.719Z,240
2016-12-24T12:37:40.447Z,235
2016-12-24T12:38:51.173Z,235
2016-12-24T12:40:01.932Z,230
2016-12-24T12:41:12.682Z,215
2016-12-24T12:42:23.407Z,210
2016-12-24T12:43:34.129Z,225
2016-12-24T12:44:44.867Z,250
2016-12-24T12:45:55.612Z,285
2016-12-24T12:47:06.347Z,300
2016-12-24T12:48:17.087Z,305
2016-12-24T12:49:27.812Z,305
2016-12-24T12:50:38.537Z,305
2016-12-24T12:51:49.259Z,290
2016-12-24T12:52:59.976Z,255
2016-12-24T12:54:10.717Z,210
2016-12-24T12:55:21.459Z,175
2016-12-24T12:56:32.187Z,165
2016-12-24T12:57:42.951Z,160
2016-12-24T12:58:53.660Z,165
2016-12-24T13:00:04.415Z,180
2016-12-24T13:01:15.149Z,195
2016-12-24T13:02:25.885Z,215
2016-12-24T13:03:36.587Z,225
2016-12-24T13:04:47.327Z,220
2016-12-24T13:05:58.054Z,200
2016-12-24T13:07:08.782Z,190
2016-12-24T13:08:19.541Z,185
2016-12-24T13:09:30.265Z,200
2016-12-24T13:10:41.020Z,220
2016-12-24T13:11:51.754Z,230
2016-12-24T13:13:02.471Z,225
2016-12-24T13:14:13.242Z,195
2016-12-24T13:15:23.972Z,175
2016-12-24T13:16:34.692Z,155
2016-12-24T13:17:45.417Z,150
2016-12-24T13:18:56.163Z,145
2016-12-24T13:20:06.925Z,140
2016-12-24T13:21:17.630Z,135
2016-12-24T13:22:28.354Z,125
2016-12-24T13:23:39.097Z,125
2016-12-24T13:24:49.806Z,125
2016-12-24T13:26:00.552Z,130
2016-12-24T13:27:11.288Z,135
2016-12-24T13:28:22.004Z,135
2016-12-24T13:29:32.754Z,135
2016-12-24T13:30:43.494Z,130
2016-12-24T13:31:54.233Z,125
2016-12-24T13:33:04.943Z,105
2016-12-24T13:34:15.987Z,95
2016-12-24T13:35:26.707Z,90
2016-12-24T13:36:37.442Z,90
2016-12-24T13:37:48.173Z,75
2016-12-24T13:38:58.897Z,65
2016-12-24T13:40:09.638Z,70
2016-12-24T13:41:20.380Z,60
2016-12-24T13:42:31.110Z,60
2016-12-24T13:43:42.127Z,55
2016-12-24T13:44:52.847Z,45
2016-12-24T13:46:03.589Z,50
2016-12-24T13:47:14.318Z,60
2016-12-24T13:48:25.031Z,55
2016-12-24T13:49:35.761Z,70
2016-12-24T13:50:46.523Z,85
2016-12-24T13:51:57.275Z,75
2016-12-24T13:53:07.998Z,60
2016-12-24T13:54:18.737Z,50
2016-12-24T13:55:29.463Z,50
2016-12-24T13:56:40.188Z,45
2016-12-24T13:57:50.924Z,50
2016-12-24T13:59:01.642Z,45
2016-12-24T14:00:12.373Z,35
2016-12-24T14:01:23.091Z,40
2016-12-24T14:02:33.829Z,25
2016-12-24T14:03:44.565Z,35
2016-12-24T14:04:55.279Z,45
2016-12-24T14:06:06.018Z,45
2016-12-24T14:07:16.742Z,35
2016-12-24T14:08:27.443Z,45
2016-12-24T14:09:38.160Z,55
2016-12-24T14:10:48.869Z,45
2016-12-24T14:11:59.581Z,30
2016-12-24T14:13:10.283Z,30
2016-12-24T14:14:21.020Z,20
2016-12-24T14:15:31.737Z,20
2016-12-24T14:16:42.471Z,20
2016-12-24T14:17:53.198Z,30
2016-12-24T14:19:03.938Z,35
2016-12-24T14:20:14.670Z,35
2016-12-24T14:21:25.399Z,40
2016-12-24T14:22:36.141Z,40
2016-12-24T14:23:46.912Z,40
2016-12-24T14:24:57.641Z,40
2016-12-24T14:26:08.362Z,35
2016-12-24T14:27:19.058Z,35
2016-12-24T14:28:30.054Z,35
2016-12-24T14:29:40.767Z,30
2016-12-24T14:30:51.495Z,30
2016-12-24T14:32:02.230Z,30
2016-12-24T14:33:12.963Z,30
2016-12-24T14:34:23.686Z,25
2016-12-24T14:35:34.398Z,25
2016-12-24T14:36:45.440Z,25
2016-12-24T14:37:56.171Z,25
2016-12-24T14:39:06.911Z,20
2016-12-24T14:40:17.653Z,20
2016-12-24T14:41:28.363Z,20
2016-12-24T14:42:39.077Z,20
2016-12-24T14:43:49.816Z,25
2016-12-24T14:45:00.524Z,25
2016-12-24T14:46:11.250Z,25
2016-12-24T14:47:21.987Z,25
2016-12-24T14:48:32.690Z,20
2016-12-24T14:49:43.421Z,20
2016-12-24T14:50:54.153Z,20
2016-12-24T14:52:04.874Z,15
2016-12-24T14:53:15.596Z,15
2016-12-24T14:54:26.330Z,15
2016-12-24T14:55:37.080Z,15
2016-12-24T14:56:47.833Z,15
2016-12-24T14:57:58.579Z,10
2016-12-24T14:59:09.301Z,10
2016-12-24T15:00:20.029Z,5
2016-12-24T15:01:31.081Z,5
2016-12-24T15:02:41.820Z,5
2016-12-24T15:03:52.556Z,5
2016-12-24T15:05:03.300Z,0
2016-12-24T15:06:14.006Z,0
2016-12-24T15:07:24.725Z,0
2016-12-24T15:08:35.461Z,0
2016-12-24T15:09:46.211Z,0
2016-12-24T15:10:56.932Z,0
2016-12-24T15:12:07.656Z,0
2016-12-24T15:13:18.374Z,0
2016-12-24T15:14:29.113Z,0
2016-12-24T15:15:39.845Z,0
2016-12-24T15:16:50.568Z,0
2016-12-24T15:18:01.301Z,0
2016-12-24T15:19:12.058Z,0
2016-12-24T15:20:22.779Z,0
2016-12-24T15:21:33.521Z,0
2016-12-24T15:22:44.238Z,0
2016-12-24T15:23:54.955Z,0
2016-12-24T15:25:05.688Z,0
2016-12-24T15:26:16.448Z,0
2016-12-24T15:27:27.197Z,0
2016-12-24T15:28:37.948Z,0
2016-12-24T15:29:48.689Z,0
2016-12-24T15:30:59.441Z,0
2016-12-24T15:32:10.180Z,0
2016-12-24T15:33:20.885Z,0
2016-12-24T15:34:31.605Z,0
2016-12-24T15:35:42.345Z,0
2016-12-24T15:36:53.071Z,0
2016-12-24T15:38:03.788Z,0
2016-12-24T15:39:14.532Z,0
2016-12-24T15:40:25.232Z,0
2016-12-24T15:41:35.975Z,0
2016-12-24T15:42:46.705Z,0
2016-12-24T15:43:57.441Z,0
2016-12-24T15:45:08.168Z,0
2016-12-24T15:46:18.868Z,0
2016-12-24T15:47:29.626Z,0
2016-12-24T15:48:40.351Z,0
2016-12-24T15:49:51.084Z,0
2016-12-24T15:51:01.839Z,0
2016-12-24T15:52:12.555Z,0
2016-12-24T15:53:23.292Z,0
2016-12-24T15:54:34.035Z,0
2016-12-24T15:55:44.753Z,0
2016-12-24T15:56:55.460Z,0
2016-12-24T15:58:06.215Z,0
2016-12-24T15:59:16.936Z,0
2016-12-24T16:00:27.665Z,0
2016-12-24T16:01:38.394Z,0
2016-12-24T16:02:49.128Z,0
2016-12-24T16:03:59.832Z,0
2016-12-24T16:05:10.553Z,0
2016-12-24T16:06:21.291Z,0
2016-12-24T16:07:32.022Z,0
2016-12-24T16:08:42.762Z,0
2016-12-24T16:09:53.499Z,0
2016-12-24T16:11:04.205Z,0
2016-12-24T16:12:14.921Z,0
2016-12-24T16:13:25.648Z,0
2016-12-24T16:14:36.395Z,0
2016-12-24T16:15:47.089Z,0
2016-12-24T16:16:57.805Z,0
2016-12-24T16:18:08.526Z,0
2016-12-24T16:19:19.268Z,0
2016-12-24T16:20:29.980Z,0
2016-12-24T16:21:40.701Z,0
2016-12-24T16:22:51.464Z,0
2016-12-24T16:24:02.166Z,0
2016-12-24T16:25:12.902Z,0
2016-12-24T16:26:23.630Z,0
2016-12-24T16:27:34.368Z,0
2016-12-24T16:28:45.069Z,0
2016-12-24T16:29:55.795Z,0
2016-12-24T16:31:06.564Z,0
2016-12-24T16:32:17.286Z,0
2016-12-24T16:33:28.012Z,0
2016-12-24T16:34:38.722Z,0
2016-12-24T16:35:49.438Z,0
2016-12-24T16:37:00.172Z,0
2016-12-24T16:38:10.930Z,0
2016-12-24T16:39:21.657Z,0
2016-12-24T16:40:32.403Z,0
2016-12-24T16:41:43.106Z,0
2016-12-24T16:42:53.837Z,0
2016-12-24T16:44:04.551Z,0
2016-12-24T16:45:15.292Z,0
2016-12-24T16:46:26.038Z,0
2016-12-24T16:47:36.786Z,0
2016-12-24T16:48:47.505Z,0
2016-12-24T16:49:58.243Z,0
2016-12-24T16:51:08.964Z,0
2016-12-24T16:52:19.681Z,0
2016-12-24T16:53:30.415Z,0
2016-12-24T16:54:41.181Z,0
2016-12-24T16:55:52.181Z,0
2016-12-24T16:57:02.900Z,0
2016-12-24T16:58:13.614Z,0
2016-12-24T16:59:24.357Z,0